Time;durP1;ratioP1;P1;durP2;ratioP2;P2;SDS_P1;SDS_P2;PMS_P1;PMS_P2;Temp;Humidity;BMP_temperature;BMP_pressure;BME280_temperature;BME280_humidity;BME280_pressure;Samples;Min_cycle;Max_cycle;Signal;HPM_P1;HPM_P2
2021/07/22 00:01:26;;;;;;;12.88;4.95;;;16.90;99.90;;;;;;5044168;28;20493;-72
2021/07/22 00:03:53;;;;;;;10.02;4.78;;;16.90;99.90;;;;;;5044366;28;20112;-71
2021/07/22 00:06:18;;;;;;;9.55;4.63;;;16.90;99.90;;;;;;5044661;28;20025;-72
2021/07/22 00:08:44;;;;;;;8.38;4.18;;;16.90;99.90;;;;;;5044637;28;20076;-72
2021/07/22 00:11:09;;;;;;;10.10;4.70;;;16.90;99.90;;;;;;5048102;28;20041;-72
2021/07/22 00:13:35;;;;;;;8.98;4.47;;;16.90;99.90;;;;;;5047997;28;20053;-72
2021/07/22 00:16:00;;;;;;;11.10;3.63;;;16.90;99.90;;;;;;5048343;28;20037;-72
2021/07/22 00:18:26;;;;;;;8.90;4.28;;;16.90;99.90;;;;;;5046700;28;20620;-70
2021/07/22 00:20:52;;;;;;;10.10;4.45;;;16.90;99.90;;;;;;5046813;28;20464;-72
2021/07/22 00:23:18;;;;;;;7.70;4.50;;;16.90;99.90;;;;;;5048485;28;20032;-71
2021/07/22 00:25:44;;;;;;;6.70;3.78;;;16.80;99.90;;;;;;5048325;28;20053;-72
2021/07/22 00:28:10;;;;;;;10.25;4.55;;;16.80;99.90;;;;;;5047966;28;20034;-70
2021/07/22 00:30:36;;;;;;;8.18;3.80;;;16.80;99.90;;;;;;5048080;28;20040;-74
2021/07/22 00:33:01;;;;;;;15.50;5.03;;;16.80;99.90;;;;;;5046626;28;20064;-70
2021/07/22 00:35:28;;;;;;;8.35;3.90;;;16.70;99.90;;;;;;5047832;28;20081;-70
2021/07/22 00:37:54;;;;;;;8.20;4.32;;;16.80;99.90;;;;;;5047749;28;20038;-72
2021/07/22 00:40:20;;;;;;;7.57;3.85;;;16.70;99.90;;;;;;5047080;28;20040;-71
2021/07/22 00:43:02;;;;;;;10.75;4.82;;;16.80;99.90;;;;;;5047959;28;20025;-70
2021/07/22 00:45:29;;;;;;;8.23;4.05;;;16.80;99.90;;;;;;5047769;28;20083;-70
2021/07/22 00:47:56;;;;;;;9.25;4.25;;;16.80;99.90;;;;;;5047702;28;20022;-71
2021/07/22 00:50:22;;;;;;;11.55;4.28;;;16.80;99.90;;;;;;5047507;28;20108;-72
2021/07/22 00:52:48;;;;;;;9.35;4.38;;;16.80;99.90;;;;;;5047770;28;20021;-73
2021/07/22 00:55:18;;;;;;;10.52;4.88;;;16.80;99.90;;;;;;5047755;28;20089;-72
2021/07/22 00:57:44;;;;;;;7.55;3.80;;;16.80;99.90;;;;;;5047081;28;20589;-70
2021/07/22 01:00:10;;;;;;;13.98;5.13;;;16.80;99.90;;;;;;5047001;28;20032;-73
2021/07/22 01:02:36;;;;;;;9.25;4.35;;;16.70;99.90;;;;;;5047489;28;20160;-72
2021/07/22 01:05:02;;;;;;;9.48;4.82;;;16.70;99.90;;;;;;5046728;28;20029;-73
2021/07/22 01:07:27;;;;;;;8.63;4.63;;;16.60;99.90;;;;;;5047179;28;20029;-74
2021/07/22 01:09:53;;;;;;;9.90;4.40;;;16.60;99.90;;;;;;5046973;28;20108;-72
2021/07/22 01:12:18;;;;;;;17.75;4.97;;;16.60;99.90;;;;;;5046813;28;20034;-72
2021/07/22 01:14:44;;;;;;;11.35;5.13;;;16.50;99.90;;;;;;5046977;28;20050;-71
2021/07/22 01:17:42;;;;;;;10.13;4.60;;;16.50;99.90;;;;;;5046987;28;20041;-71
2021/07/22 01:20:13;;;;;;;12.93;4.90;;;16.50;99.90;;;;;;5046460;28;20029;-71
2021/07/22 01:22:39;;;;;;;7.65;3.90;;;16.50;99.90;;;;;;5047125;28;20033;-74
2021/07/22 01:25:05;;;;;;;8.55;4.47;;;16.50;99.90;;;;;;5047116;28;20080;-71
2021/07/22 01:27:31;;;;;;;8.13;3.85;;;16.40;99.90;;;;;;5046677;28;20025;-71
2021/07/22 01:29:56;;;;;;;9.40;4.55;;;16.50;99.90;;;;;;5046789;28;20029;-73
2021/07/22 01:32:22;;;;;;;6.55;4.13;;;16.40;99.90;;;;;;5047150;28;20032;-72
2021/07/22 01:34:48;;;;;;;13.43;5.07;;;16.40;99.90;;;;;;5046972;28;20081;-71
2021/07/22 01:37:14;;;;;;;12.60;5.10;;;16.30;99.90;;;;;;5046673;28;20120;-71
2021/07/22 01:39:40;;;;;;;15.55;5.45;;;16.30;99.90;;;;;;5046553;28;20032;-72
2021/07/22 01:42:06;;;;;;;10.60;5.00;;;16.20;99.90;;;;;;5046170;28;20021;-71
2021/07/22 01:44:32;;;;;;;16.60;4.35;;;16.20;99.90;;;;;;5046090;28;20025;-72
2021/07/22 01:46:57;;;;;;;9.45;4.47;;;16.10;99.90;;;;;;5046265;28;20040;-70
2021/07/22 01:49:24;;;;;;;14.20;4.60;;;16.10;99.90;;;;;;5046646;28;20083;-71
2021/07/22 01:51:50;;;;;;;9.05;4.15;;;16.10;99.90;;;;;;5047057;28;20108;-74
2021/07/22 01:54:16;;;;;;;15.82;4.75;;;16.10;99.90;;;;;;5047403;28;20037;-71
2021/07/22 01:56:41;;;;;;;14.85;4.55;;;16.00;99.90;;;;;;5046390;28;20049;-71
2021/07/22 01:59:07;;;;;;;12.43;4.35;;;16.00;99.90;;;;;;5046243;28;20017;-72
2021/07/22 02:01:32;;;;;;;10.88;5.47;;;16.00;99.90;;;;;;5046310;28;20030;-70
2021/07/22 02:03:58;;;;;;;9.88;4.57;;;16.00;99.90;;;;;;5046236;28;20025;-72
2021/07/22 02:06:24;;;;;;;7.88;4.53;;;16.00;99.90;;;;;;5046235;28;20029;-71
2021/07/22 02:08:50;;;;;;;15.65;4.80;;;16.00;99.90;;;;;;5046280;28;20033;-72
2021/07/22 02:11:15;;;;;;;10.27;5.38;;;16.00;99.90;;;;;;5046397;28;20040;-71
2021/07/22 02:13:41;;;;;;;9.85;3.78;;;16.00;99.90;;;;;;5045640;28;20068;-71
2021/07/22 02:16:07;;;;;;;11.15;4.88;;;16.00;99.90;;;;;;5045595;28;20037;-71
2021/07/22 02:18:33;;;;;;;13.52;4.53;;;16.00;99.90;;;;;;5045569;28;20084;-71
2021/07/22 02:21:07;;;;;;;10.00;4.05;;;16.00;99.90;;;;;;5045937;28;20383;-72
2021/07/22 02:23:33;;;;;;;11.55;5.07;;;16.00;99.90;;;;;;5045729;28;20049;-72
2021/07/22 02:26:02;;;;;;;9.27;3.45;;;16.00;99.90;;;;;;5045822;28;20029;-72
2021/07/22 02:28:28;;;;;;;9.05;4.22;;;16.10;99.90;;;;;;5045621;28;20033;-73
2021/07/22 02:30:54;;;;;;;7.13;4.07;;;16.10;99.90;;;;;;5044005;28;20124;-72
2021/07/22 02:33:19;;;;;;;8.95;4.53;;;16.10;99.90;;;;;;5045771;28;20026;-71
2021/07/22 02:35:45;;;;;;;9.68;4.30;;;16.20;99.90;;;;;;5044591;28;20033;-71
2021/07/22 02:38:10;;;;;;;8.68;4.20;;;16.10;99.90;;;;;;5043993;28;20904;-71
2021/07/22 02:40:36;;;;;;;11.20;4.60;;;16.10;99.90;;;;;;5044050;28;20025;-71
2021/07/22 02:43:02;;;;;;;9.80;4.95;;;16.10;99.90;;;;;;5045459;28;20052;-72
2021/07/22 02:45:27;;;;;;;9.40;4.75;;;16.10;99.90;;;;;;5045228;28;20026;-70
2021/07/22 02:47:53;;;;;;;10.10;4.88;;;16.00;99.90;;;;;;5044000;28;20051;-69
2021/07/22 02:50:18;;;;;;;12.05;4.90;;;16.00;99.90;;;;;;5043653;28;20061;-72
2021/07/22 02:52:44;;;;;;;11.43;4.32;;;15.90;99.90;;;;;;5045601;28;20116;-72
2021/07/22 02:55:10;;;;;;;9.23;4.70;;;16.00;99.90;;;;;;5043948;28;20140;-70
2021/07/22 02:57:36;;;;;;;10.30;5.07;;;15.90;99.90;;;;;;5045081;28;20063;-72
2021/07/22 03:00:02;;;;;;;15.20;4.93;;;15.90;99.90;;;;;;5045171;28;20029;-71
2021/07/22 03:02:28;;;;;;;11.27;4.97;;;15.80;99.90;;;;;;5045037;28;20026;-71
2021/07/22 03:04:54;;;;;;;10.77;5.18;;;15.80;99.90;;;;;;5044726;28;20034;-73
2021/07/22 03:07:20;;;;;;;13.05;6.10;;;15.80;99.90;;;;;;5043747;28;20018;-70
2021/07/22 03:09:45;;;;;;;10.90;4.80;;;15.70;99.90;;;;;;5045058;28;20036;-71
2021/07/22 03:12:11;;;;;;;8.07;4.65;;;15.70;99.90;;;;;;5044635;28;20052;-71
2021/07/22 03:14:37;;;;;;;11.75;4.57;;;15.70;99.90;;;;;;5044833;28;20041;-72
2021/07/22 03:17:03;;;;;;;8.55;5.13;;;15.70;99.90;;;;;;5044777;28;20037;-72
2021/07/22 03:19:28;;;;;;;8.90;4.80;;;15.60;99.90;;;;;;5044803;28;20470;-69
2021/07/22 03:21:55;;;;;;;7.97;4.28;;;15.60;99.90;;;;;;5044339;28;20072;-71
2021/07/22 03:24:21;;;;;;;12.70;5.03;;;15.60;99.90;;;;;;5044916;28;20026;-71
2021/07/22 03:26:46;;;;;;;11.18;5.13;;;15.50;99.90;;;;;;5044826;28;20037;-70
2021/07/22 03:29:12;;;;;;;8.90;5.20;;;15.50;99.90;;;;;;5044609;28;20075;-71
2021/07/22 03:31:37;;;;;;;13.73;5.82;;;15.40;99.90;;;;;;5044486;28;20490;-71
2021/07/22 03:34:03;;;;;;;9.55;5.18;;;15.40;99.90;;;;;;5043368;28;20033;-71
2021/07/22 03:36:28;;;;;;;11.10;5.72;;;15.30;99.90;;;;;;5043114;28;20027;-72
2021/07/22 03:38:54;;;;;;;10.60;5.07;;;15.30;99.90;;;;;;5044434;28;20041;-72
2021/07/22 03:41:22;;;;;;;11.38;5.63;;;15.30;99.90;;;;;;5044607;28;20090;-71
2021/07/22 03:43:48;;;;;;;18.73;5.68;;;15.30;99.90;;;;;;5043170;28;20029;-71
2021/07/22 03:46:14;;;;;;;11.98;5.07;;;15.20;99.90;;;;;;5044647;28;20052;-71
2021/07/22 03:48:39;;;;;;;11.82;5.07;;;15.30;99.90;;;;;;5044471;28;20044;-70
2021/07/22 03:51:05;;;;;;;18.92;5.70;;;15.20;99.90;;;;;;5044404;28;20033;-71
2021/07/22 03:53:30;;;;;;;9.60;4.68;;;15.30;99.90;;;;;;5043806;28;20036;-71
2021/07/22 03:55:56;;;;;;;16.45;5.82;;;15.20;99.90;;;;;;5044197;28;20085;-72
2021/07/22 03:58:22;;;;;;;15.80;6.13;;;15.30;99.90;;;;;;5044380;28;20453;-73
2021/07/22 04:00:48;;;;;;;10.63;5.38;;;15.20;99.90;;;;;;5044333;28;20025;-71
2021/07/22 04:03:13;;;;;;;13.18;6.25;;;15.20;99.90;;;;;;5044525;28;20104;-72
2021/07/22 04:05:39;;;;;;;15.48;5.10;;;15.20;99.90;;;;;;5044415;28;20030;-71
2021/07/22 04:08:05;;;;;;;12.43;6.10;;;15.20;99.90;;;;;;5042798;28;20441;-69
2021/07/22 04:10:30;;;;;;;12.63;6.07;;;15.20;99.90;;;;;;5044147;28;20036;-72
2021/07/22 04:12:59;;;;;;;11.60;5.35;;;15.10;99.90;;;;;;5044919;28;20055;-70
2021/07/22 04:15:27;;;;;;;13.32;5.88;;;15.20;99.90;;;;;;5061564;28;20087;-71
2021/07/22 04:17:55;;;;;;;12.70;6.03;;;15.20;99.90;;;;;;5056077;28;20086;-71
2021/07/22 04:20:24;;;;;;;11.10;5.60;;;15.20;99.90;;;;;;5042262;28;20037;-70
2021/07/22 04:22:50;;;;;;;14.82;5.85;;;15.20;99.90;;;;;;5054081;28;20142;-71
2021/07/22 04:25:17;;;;;;;15.65;6.30;;;15.20;99.90;;;;;;5050825;28;20078;-72
2021/07/22 04:27:43;;;;;;;13.18;6.10;;;15.20;99.90;;;;;;5058173;28;20029;-72
2021/07/22 04:30:09;;;;;;;15.15;5.10;;;15.20;99.90;;;;;;5063900;28;20037;-72
2021/07/22 04:32:36;;;;;;;8.63;4.88;;;15.30;99.90;;;;;;5063937;28;20025;-71
2021/07/22 04:35:02;;;;;;;15.18;6.25;;;15.30;99.90;;;;;;5059251;28;20025;-71
2021/07/22 04:37:28;;;;;;;9.90;5.32;;;15.30;99.90;;;;;;5044140;28;20038;-73
2021/07/22 04:39:54;;;;;;;14.85;5.38;;;15.40;99.90;;;;;;5046714;28;20040;-71
2021/07/22 04:42:19;;;;;;;18.25;5.70;;;15.40;99.90;;;;;;5062634;28;20025;-73
2021/07/22 04:44:45;;;;;;;10.30;5.45;;;15.40;99.90;;;;;;5062645;28;20025;-72
2021/07/22 04:47:10;;;;;;;16.13;6.18;;;15.50;99.90;;;;;;5064021;28;20025;-72
2021/07/22 04:49:36;;;;;;;14.57;5.80;;;15.50;99.90;;;;;;5059116;28;20474;-71
2021/07/22 04:52:02;;;;;;;9.85;4.78;;;15.50;99.90;;;;;;5043866;28;20029;-72
2021/07/22 04:54:27;;;;;;;11.48;5.45;;;15.50;99.90;;;;;;5044465;28;20037;-73
2021/07/22 04:56:54;;;;;;;11.32;5.18;;;15.60;99.90;;;;;;5048253;28;20037;-72
2021/07/22 04:59:20;;;;;;;15.73;6.82;;;15.50;99.90;;;;;;5067343;28;20029;-72
2021/07/22 05:01:45;;;;;;;14.68;6.38;;;15.60;99.90;;;;;;5067613;28;20052;-72
2021/07/22 05:04:17;;;;;;;11.95;5.43;;;15.60;99.90;;;;;;5067431;28;20040;-71
2021/07/22 05:06:43;;;;;;;18.02;4.93;;;15.70;99.90;;;;;;5065591;28;20066;-71
2021/07/22 05:09:09;;;;;;;13.10;5.80;;;15.70;99.90;;;;;;5059118;28;20553;-70
2021/07/22 05:11:35;;;;;;;11.73;5.10;;;15.70;99.90;;;;;;5045974;28;20089;-72
2021/07/22 05:14:00;;;;;;;12.57;4.93;;;15.70;99.90;;;;;;5046854;28;20132;-72
2021/07/22 05:16:26;;;;;;;9.65;5.07;;;15.80;99.90;;;;;;5047239;28;20075;-72
2021/07/22 05:18:52;;;;;;;9.63;3.85;;;15.80;99.90;;;;;;5047117;28;20026;-71
2021/07/22 05:21:19;;;;;;;12.77;4.80;;;15.80;99.90;;;;;;5047190;28;20116;-69
2021/07/22 05:23:45;;;;;;;7.13;3.80;;;15.80;99.90;;;;;;5046924;28;20018;-71
2021/07/22 05:26:12;;;;;;;15.10;5.22;;;15.90;99.90;;;;;;5047074;28;20036;-71
2021/07/22 05:28:39;;;;;;;15.32;4.50;;;16.00;99.90;;;;;;5046875;28;20045;-70
2021/07/22 05:31:09;;;;;;;10.95;4.30;;;16.10;99.90;;;;;;5046440;28;20109;-70
2021/07/22 05:33:35;;;;;;;13.85;4.40;;;16.10;99.90;;;;;;5046821;28;20068;-70
2021/07/22 05:36:05;;;;;;;7.03;3.83;;;16.10;99.90;;;;;;5046784;28;20026;-70
2021/07/22 05:38:32;;;;;;;11.93;4.55;;;16.10;99.90;;;;;;5046674;28;20034;-70
2021/07/22 05:41:04;;;;;;;13.02;4.55;;;16.10;99.90;;;;;;5058409;28;20026;-71
2021/07/22 05:43:31;;;;;;;6.47;3.33;;;16.20;99.90;;;;;;5046497;28;20072;-70
2021/07/22 05:45:57;;;;;;;6.18;3.72;;;16.20;99.90;;;;;;5046590;28;20036;-71
2021/07/22 05:48:24;;;;;;;10.75;3.90;;;16.30;99.90;;;;;;5046636;28;20033;-71
2021/07/22 05:50:50;;;;;;;8.75;3.30;;;16.30;99.90;;;;;;5049384;28;20029;-72
2021/07/22 05:53:17;;;;;;;4.82;2.88;;;16.30;99.90;;;;;;5055779;28;20051;-71
2021/07/22 05:55:43;;;;;;;3.47;2.53;;;16.40;99.90;;;;;;5045804;28;20025;-72
2021/07/22 05:58:09;;;;;;;5.80;2.65;;;16.30;99.90;;;;;;5046056;28;20642;-71
2021/07/22 06:00:35;;;;;;;3.63;2.30;;;16.50;99.90;;;;;;5045795;28;20072;-70
2021/07/22 06:03:10;;;;;;;3.15;1.90;;;16.50;99.90;;;;;;5045773;28;20074;-71
2021/07/22 06:05:37;;;;;;;4.50;2.00;;;16.60;99.90;;;;;;5045918;28;20032;-71
2021/07/22 06:08:03;;;;;;;3.55;2.40;;;16.60;99.90;;;;;;5045526;28;20108;-69
2021/07/22 06:10:30;;;;;;;4.43;2.55;;;16.60;99.90;;;;;;5046064;28;20033;-72
2021/07/22 06:12:56;;;;;;;4.68;2.47;;;16.70;99.90;;;;;;5044841;28;20033;-73
2021/07/22 06:15:23;;;;;;;5.68;2.33;;;16.70;99.90;;;;;;5046302;28;20052;-72
2021/07/22 06:17:48;;;;;;;4.47;2.78;;;16.80;99.90;;;;;;5045024;28;20128;-72
2021/07/22 06:20:14;;;;;;;6.22;2.53;;;16.80;99.90;;;;;;5045954;28;20026;-69
2021/07/22 06:22:40;;;;;;;4.57;2.05;;;16.90;99.90;;;;;;5044630;28;20089;-69
2021/07/22 06:25:07;;;;;;;4.20;2.05;;;16.80;99.90;;;;;;5045986;28;20025;-68
2021/07/22 06:27:33;;;;;;;2.78;1.90;;;16.90;99.90;;;;;;5045941;28;20079;-70
2021/07/22 06:30:03;;;;;;;4.45;2.25;;;17.00;99.90;;;;;;5045123;28;20029;-69
2021/07/22 06:32:28;;;;;;;2.72;1.60;;;17.00;99.90;;;;;;5045773;28;20028;-71
2021/07/22 06:34:54;;;;;;;2.85;1.90;;;17.00;99.90;;;;;;5045201;28;20025;-70
2021/07/22 06:37:19;;;;;;;3.03;1.85;;;17.00;99.90;;;;;;5045947;28;20033;-71
2021/07/22 06:39:45;;;;;;;3.38;1.73;;;17.10;99.90;;;;;;5045738;28;20037;-70
2021/07/22 06:42:11;;;;;;;7.97;2.38;;;17.20;99.90;;;;;;5045429;28;20025;-70
2021/07/22 06:44:36;;;;;;;11.00;1.83;;;17.20;99.90;;;;;;5045444;28;20085;-70
2021/07/22 06:47:02;;;;;;;4.55;1.95;;;17.30;99.90;;;;;;5045542;28;20037;-71
2021/07/22 06:49:28;;;;;;;3.58;1.92;;;17.30;99.90;;;;;;5045591;28;20048;-69
2021/07/22 06:51:53;;;;;;;3.40;1.88;;;17.30;99.90;;;;;;5045470;28;20033;-70
2021/07/22 06:54:20;;;;;;;4.13;2.25;;;17.30;99.90;;;;;;5044118;28;20033;-71
2021/07/22 06:56:46;;;;;;;3.28;1.98;;;17.30;99.90;;;;;;5048575;28;20397;-74
2021/07/22 06:59:12;;;;;;;3.67;2.03;;;17.40;99.90;;;;;;5052231;28;20033;-71
2021/07/22 07:01:38;;;;;;;8.18;2.00;;;17.50;99.90;;;;;;5052826;28;20029;-69
2021/07/22 07:04:04;;;;;;;4.32;2.03;;;17.60;99.90;;;;;;5064106;28;20029;-69
2021/07/22 07:06:32;;;;;;;4.70;2.50;;;17.70;99.90;;;;;;5064670;28;20085;-72
2021/07/22 07:08:57;;;;;;;6.65;2.45;;;17.70;99.90;;;;;;5064951;28;20438;-71
2021/07/22 07:11:23;;;;;;;2.50;1.95;;;17.80;99.90;;;;;;5064627;28;20037;-74
2021/07/22 07:13:49;;;;;;;2.42;1.58;;;17.80;99.90;;;;;;5059660;28;20111;-70
2021/07/22 07:16:14;;;;;;;4.03;1.90;;;17.90;99.90;;;;;;5052442;28;20020;-71
2021/07/22 07:18:40;;;;;;;8.60;2.17;;;17.80;99.90;;;;;;5064803;28;20045;-71
2021/07/22 07:21:06;;;;;;;5.50;2.63;;;17.90;99.90;;;;;;5048131;28;20039;-72
2021/07/22 07:23:32;;;;;;;4.07;2.22;;;18.00;99.90;;;;;;5045124;28;20064;-72
2021/07/22 07:25:59;;;;;;;3.60;2.03;;;18.00;99.90;;;;;;5044896;28;20108;-71
2021/07/22 07:28:25;;;;;;;3.30;2.22;;;18.00;99.90;;;;;;5043962;28;20060;-71
2021/07/22 07:30:50;;;;;;;5.75;2.33;;;18.00;99.90;;;;;;5045354;28;20040;-71
2021/07/22 07:33:16;;;;;;;3.13;1.98;;;18.10;99.90;;;;;;5045017;28;20040;-71
2021/07/22 07:35:42;;;;;;;3.08;1.77;;;18.10;99.90;;;;;;5045196;28;20026;-70
2021/07/22 07:38:08;;;;;;;6.50;2.30;;;18.20;99.90;;;;;;5044719;28;20048;-71
2021/07/22 07:40:33;;;;;;;3.03;1.95;;;18.20;99.90;;;;;;5043480;28;20036;-70
2021/07/22 07:42:59;;;;;;;4.03;2.03;;;18.20;99.90;;;;;;5044883;28;20029;-72
2021/07/22 07:45:25;;;;;;;3.95;2.30;;;18.30;99.90;;;;;;5044830;28;20029;-74
2021/07/22 07:47:51;;;;;;;4.40;2.42;;;18.30;99.90;;;;;;5044961;28;20063;-69
2021/07/22 07:50:18;;;;;;;5.00;3.08;;;18.40;99.90;;;;;;5045005;28;20033;-70
2021/07/22 07:52:44;;;;;;;4.72;2.20;;;18.60;99.90;;;;;;5044840;28;20059;-70
2021/07/22 07:55:10;;;;;;;4.10;2.10;;;18.70;99.90;;;;;;5044893;28;20494;-71
2021/07/22 07:57:36;;;;;;;3.17;2.03;;;18.80;99.90;;;;;;5051308;28;20045;-70
2021/07/22 08:00:04;;;;;;;10.18;3.13;;;18.90;99.90;;;;;;5057794;28;20397;-70
2021/07/22 08:02:29;;;;;;;4.63;2.25;;;19.10;99.90;;;;;;5064266;28;20029;-72
2021/07/22 08:04:57;;;;;;;4.40;2.35;;;19.20;99.90;;;;;;5063823;28;20513;-73
2021/07/22 08:07:25;;;;;;;6.05;2.90;;;19.20;99.90;;;;;;5058819;28;20387;-71
2021/07/22 08:09:51;;;;;;;4.90;2.15;;;19.20;99.90;;;;;;5044765;28;20026;-71
2021/07/22 08:12:17;;;;;;;6.72;2.17;;;19.10;99.90;;;;;;5044146;28;20045;-71
2021/07/22 08:14:43;;;;;;;6.05;2.35;;;19.10;99.90;;;;;;5043828;28;20056;-73
2021/07/22 08:17:14;;;;;;;5.68;2.45;;;19.00;99.90;;;;;;5044433;28;20046;-71
2021/07/22 08:19:39;;;;;;;4.50;2.25;;;18.90;99.90;;;;;;5044359;28;20037;-71
2021/07/22 08:22:11;;;;;;;5.50;2.17;;;18.90;99.90;;;;;;5044401;28;20029;-72
2021/07/22 08:24:38;;;;;;;3.03;1.90;;;18.90;99.90;;;;;;5044401;28;20027;-69
2021/07/22 08:27:04;;;;;;;3.63;2.00;;;18.90;99.90;;;;;;5044589;28;20040;-69
2021/07/22 08:29:30;;;;;;;4.68;1.98;;;19.00;99.90;;;;;;5045409;28;20034;-70
2021/07/22 08:31:55;;;;;;;3.03;1.80;;;19.00;99.90;;;;;;5048275;28;20049;-71
2021/07/22 08:34:21;;;;;;;1.45;1.33;;;19.10;99.90;;;;;;5048606;28;20029;-71
2021/07/22 08:36:47;;;;;;;3.45;2.05;;;19.10;99.90;;;;;;5048336;28;20139;-71
2021/07/22 08:39:12;;;;;;;3.67;2.03;;;19.20;99.90;;;;;;5048294;28;20052;-70
2021/07/22 08:41:46;;;;;;;3.60;2.20;;;19.30;99.90;;;;;;5048245;28;20344;-70
2021/07/22 08:44:13;;;;;;;4.28;1.88;;;19.30;99.90;;;;;;5048139;28;20026;-72
2021/07/22 08:46:43;;;;;;;6.65;2.50;;;19.50;99.90;;;;;;5048082;28;20433;-71
2021/07/22 08:49:10;;;;;;;3.97;1.85;;;19.70;99.90;;;;;;5048187;28;20037;-72
2021/07/22 08:51:36;;;;;;;3.67;1.90;;;20.00;99.90;;;;;;5047846;28;20025;-71
2021/07/22 08:54:02;;;;;;;5.28;2.10;;;20.20;99.90;;;;;;5047999;28;20036;-74
2021/07/22 08:56:28;;;;;;;10.10;2.03;;;20.20;99.90;;;;;;5048991;28;20108;-72
2021/07/22 08:58:57;;;;;;;4.70;2.15;;;20.20;99.90;;;;;;5060094;28;20037;-70
2021/07/22 09:01:28;;;;;;;4.28;1.80;;;20.10;99.90;;;;;;5057694;28;20017;-72
2021/07/22 09:03:58;;;;;;;4.50;1.98;;;20.00;99.90;;;;;;5067840;28;20116;-71
2021/07/22 09:06:23;;;;;;;5.53;1.77;;;20.00;99.90;;;;;;5061862;28;20026;-69
2021/07/22 09:08:50;;;;;;;3.97;2.10;;;19.90;99.90;;;;;;5047991;28;20030;-70
2021/07/22 09:11:16;;;;;;;5.20;2.00;;;19.90;99.90;;;;;;5067219;28;20424;-72
2021/07/22 09:13:41;;;;;;;5.88;2.10;;;19.80;99.90;;;;;;5065943;28;20064;-72
2021/07/22 09:16:08;;;;;;;5.35;1.75;;;19.80;99.90;;;;;;5066125;28;20025;-71
2021/07/22 09:18:35;;;;;;;7.30;1.85;;;19.80;99.90;;;;;;5066068;28;20477;-71
2021/07/22 09:21:22;;;;;;;3.67;2.00;;;19.90;99.90;;;;;;5065982;28;20061;-71
2021/07/22 09:24:09;;;;;;;4.40;1.88;;;20.00;99.90;;;;;;5066130;28;20029;-73
2021/07/22 09:26:37;;;;;;;2.53;1.70;;;20.00;99.90;;;;;;5065886;28;20029;-71
2021/07/22 09:29:07;;;;;;;4.85;1.80;;;20.10;99.90;;;;;;5065890;28;20024;-71
2021/07/22 09:31:33;;;;;;;2.38;1.70;;;20.10;99.90;;;;;;5065785;28;20021;-72
2021/07/22 09:33:59;;;;;;;4.35;2.03;;;20.10;99.90;;;;;;5065525;28;20418;-70
2021/07/22 09:36:34;;;;;;;2.22;1.65;;;20.10;99.90;;;;;;5065997;28;20104;-70
2021/07/22 09:39:19;;;;;;;5.10;2.22;;;20.00;99.90;;;;;;5065491;28;20124;-72
2021/07/22 09:41:54;;;;;;;3.22;1.70;;;20.00;99.90;;;;;;5065687;28;20032;-70
2021/07/22 09:44:35;;;;;;;2.67;1.88;;;20.00;99.90;;;;;;5065913;28;20025;-71
2021/07/22 09:47:02;;;;;;;3.05;1.83;;;19.90;99.90;;;;;;5065842;28;20029;-71
2021/07/22 09:49:33;;;;;;;4.45;1.88;;;20.00;99.90;;;;;;5080971;28;20025;-74
2021/07/22 09:52:02;;;;;;;2.47;1.50;;;19.90;99.90;;;;;;5065705;28;20042;-69
2021/07/22 09:54:36;;;;;;;4.10;2.50;;;20.00;99.90;;;;;;5065432;28;20052;-70
2021/07/22 09:57:02;;;;;;;3.15;1.88;;;20.00;99.90;;;;;;5065506;28;20044;-73
2021/07/22 09:59:29;;;;;;;3.28;1.73;;;19.90;99.90;;;;;;5064458;28;20121;-72
2021/07/22 10:01:59;;;;;;;2.92;1.80;;;20.00;99.90;;;;;;5065952;28;20493;-74
2021/07/22 10:04:29;;;;;;;4.18;1.52;;;20.00;99.90;;;;;;5066102;28;20029;-69
2021/07/22 10:06:59;;;;;;;4.57;1.75;;;20.00;99.90;;;;;;5064404;28;20095;-69
2021/07/22 10:09:27;;;;;;;3.00;1.60;;;19.90;99.90;;;;;;5065934;28;20033;-70
2021/07/22 10:11:53;;;;;;;7.30;2.03;;;19.90;99.90;;;;;;5065887;28;20033;-74
2021/07/22 10:14:21;;;;;;;5.15;1.83;;;19.90;99.90;;;;;;5064342;28;20045;-70
2021/07/22 10:16:49;;;;;;;2.47;1.50;;;19.90;99.90;;;;;;5064593;28;20045;-72
2021/07/22 10:19:19;;;;;;;3.22;1.67;;;19.90;99.90;;;;;;5065860;28;20021;-70
2021/07/22 10:21:46;;;;;;;2.55;1.77;;;19.90;99.90;;;;;;5065577;28;20021;-71
2021/07/22 10:24:12;;;;;;;4.57;1.77;;;20.00;99.90;;;;;;5065431;28;20021;-76
2021/07/22 10:26:42;;;;;;;2.90;1.58;;;20.10;99.90;;;;;;5065236;28;20101;-73
2021/07/22 10:29:07;;;;;;;3.60;1.88;;;20.10;99.90;;;;;;5065548;28;20427;-70
2021/07/22 10:31:38;;;;;;;2.88;1.77;;;20.20;99.90;;;;;;5063921;28;20025;-71
2021/07/22 10:34:05;;;;;;;2.80;1.77;;;20.20;99.90;;;;;;5065499;28;20021;-70
2021/07/22 10:36:31;;;;;;;4.70;2.10;;;20.30;99.90;;;;;;5065102;28;20017;-71
2021/07/22 10:39:01;;;;;;;2.60;1.73;;;20.40;99.90;;;;;;5065750;28;20033;-72
2021/07/22 10:41:41;;;;;;;5.03;1.63;;;20.40;99.90;;;;;;5065535;28;20028;-72
2021/07/22 10:44:15;;;;;;;5.53;1.85;;;20.50;99.90;;;;;;5065313;28;20032;-72
2021/07/22 10:46:52;;;;;;;;;;;20.60;99.90;;;;;;5064133;28;20125;-72
2021/07/22 10:49:18;;;;;;;2.17;1.63;;;20.70;99.90;;;;;;5065408;28;19931;-76
2021/07/22 10:51:45;;;;;;;3.85;1.77;;;20.80;99.90;;;;;;5064919;28;20037;-73
2021/07/22 10:54:44;;;;;;;2.50;1.55;;;20.90;99.90;;;;;;5064255;28;20025;-71
2021/07/22 10:57:33;;;;;;;2.08;1.48;;;20.90;99.90;;;;;;5064216;28;20116;-72
2021/07/22 10:59:59;;;;;;;1.70;1.20;;;21.00;99.90;;;;;;5064735;28;20036;-69
2021/07/22 11:02:46;;;;;;;2.88;1.65;;;21.20;99.90;;;;;;5054673;28;20026;-72
2021/07/22 11:05:38;;;;;;;3.13;1.95;;;21.20;99.90;;;;;;5051236;28;20088;-74
2021/07/22 11:08:25;;;;;;;2.42;1.77;;;21.30;99.90;;;;;;5062097;28;20041;-73
2021/07/22 11:11:08;;;;;;;3.25;1.67;;;21.30;99.90;;;;;;5042668;28;20385;-71
2021/07/22 11:13:37;;;;;;;5.20;1.70;;;21.40;99.90;;;;;;5060683;28;20028;-72
2021/07/22 11:16:03;;;;;;;2.20;1.60;;;21.50;99.90;;;;;;5055455;28;20052;-74
2021/07/22 11:18:44;;;;;;;3.80;1.73;;;21.60;99.90;;;;;;5042745;28;20120;-73
2021/07/22 11:21:12;;;;;;;12.05;1.65;;;21.60;99.90;;;;;;5055260;28;20029;-70
2021/07/22 11:23:39;;;;;;;3.13;1.48;;;21.60;99.90;;;;;;5043594;28;20140;-73
2021/07/22 11:26:04;;;;;;;2.33;1.27;;;21.80;99.90;;;;;;5043942;28;20026;-70
2021/07/22 11:28:30;;;;;;;3.30;1.77;;;21.80;99.90;;;;;;5043508;28;20029;-71
2021/07/22 11:31:03;;;;;;;1.42;0.90;;;22.00;99.90;;;;;;5044209;28;20108;-74
2021/07/22 11:33:30;;;;;;;2.22;1.42;;;22.20;99.90;;;;;;5044335;28;20044;-70
2021/07/22 11:36:05;;;;;;;7.53;1.88;;;22.30;99.90;;;;;;5044492;28;20026;-75
2021/07/22 11:38:31;;;;;;;3.55;1.77;;;22.30;99.90;;;;;;5044390;28;20033;-71
2021/07/22 11:40:57;;;;;;;4.05;1.90;;;22.30;99.90;;;;;;5042976;28;20032;-70
2021/07/22 11:43:37;;;;;;;3.92;1.85;;;22.40;99.90;;;;;;5044396;28;20100;-76
2021/07/22 11:46:07;;;;;;;4.82;1.90;;;22.80;99.90;;;;;;5043733;28;20033;-71
2021/07/22 11:48:33;;;;;;;2.80;1.40;;;23.10;99.90;;;;;;5044216;28;20033;-73
2021/07/22 11:51:04;;;;;;;2.58;1.58;;;23.40;99.90;;;;;;5042751;28;20029;-72
2021/07/22 11:53:30;;;;;;;2.53;1.55;;;23.60;99.90;;;;;;5044263;28;20025;-74
2021/07/22 11:55:57;;;;;;;2.22;1.45;;;23.70;99.90;;;;;;5042648;28;20026;-76
2021/07/22 11:58:24;;;;;;;3.22;1.38;;;23.80;99.90;;;;;;5044025;28;20044;-70
2021/07/22 12:00:50;;;;;;;1.23;1.10;;;23.90;99.90;;;;;;5044092;28;20064;-72
2021/07/22 12:03:22;;;;;;;4.82;1.50;;;24.10;99.90;;;;;;5044132;28;20033;-71
2021/07/22 12:05:48;;;;;;;5.18;0.95;;;24.30;99.90;;;;;;5044248;28;20113;-74
2021/07/22 12:08:16;;;;;;;2.80;2.00;;;24.30;99.90;;;;;;5044072;28;20470;-75
2021/07/22 12:10:41;;;;;;;2.10;1.30;;;24.50;99.90;;;;;;5044121;28;20060;-75
2021/07/22 12:13:10;;;;;;;1.98;1.25;;;24.70;99.90;;;;;;5042300;28;20495;-74
2021/07/22 12:15:36;;;;;;;4.40;1.10;;;25.00;99.90;;;;;;5043703;28;20045;-77
2021/07/22 12:18:03;;;;;;;1.75;1.20;;;25.10;99.90;;;;;;5042439;28;20041;-75
2021/07/22 12:20:29;;;;;;;4.95;1.38;;;25.10;99.90;;;;;;5042571;28;20363;-75
2021/07/22 12:22:55;;;;;;;1.80;1.17;;;25.20;99.90;;;;;;5043883;28;20033;-74
2021/07/22 12:25:20;;;;;;;1.38;0.75;;;25.30;99.90;;;;;;5043971;28;20426;-73
2021/07/22 12:27:49;;;;;;;2.72;1.30;;;25.50;99.90;;;;;;5043668;28;20116;-75
2021/07/22 12:30:19;;;;;;;2.15;1.42;;;25.70;99.90;;;;;;5044023;28;20374;-75
2021/07/22 12:32:47;;;;;;;1.63;0.93;;;25.90;99.90;;;;;;5044031;28;20057;-76
2021/07/22 12:35:33;;;;;;;2.15;1.10;;;26.10;99.90;;;;;;5042497;28;20029;-76
2021/07/22 12:38:02;;;;;;;3.08;1.45;;;26.30;99.90;;;;;;5043682;28;20093;-72
2021/07/22 12:40:40;;;;;;;2.97;0.98;;;26.00;99.90;;;;;;5043697;28;20022;-73
2021/07/22 12:43:12;;;;;;;1.10;0.70;;;25.90;99.90;;;;;;5043659;28;20034;-75
2021/07/22 12:45:38;;;;;;;2.00;0.95;;;25.90;99.90;;;;;;5059117;28;20026;-72